NCAR-RAP Real-Time Weather Data

Output produced by METARs form (20 February 2019  18:33 UTC)
found at http://weather.rap.ucar.edu/surface/
 
RJCB 201100Z 13007KT 9999 FEW020 BKN035 M00/M03 Q1014
RJCB 201000Z 12003KT 9999 FEW020 BKN035 01/M03 Q1013
RJCB 200900Z 16005KT 9999 FEW020 BKN035 01/M04 Q1013
RJCB 200800Z 05004KT 030V110 9999 FEW020 BKN035 02/M03 Q1012
RJCB 200700Z 19004KT 9999 FEW030 BKN040 02/M05 Q1012
RJCB 200600Z 19006KT 9999 FEW030 BKN060 03/M05 Q1011
RJCB 200500Z 19007KT 9999 FEW030 BKN050 03/M03 Q1011
RJCB 200400Z VRB01KT 9999 FEW030 BKN040 03/M04 Q1011
RJCB 200300Z VRB01KT 9999 FEW030 03/M04 Q1012
RJCB 200200Z 34003KT 9999 FEW030 02/M02 Q1012
RJCB 200100Z 36002KT 9999 FEW040 SCT/// 00/M04 Q1012
RJCB 200000Z 00000KT 9999 FEW050 SCT120 01/M01 Q1012
RJCB 192302Z VRB01KT 9999 R35/0350VP2000U MIFG FEW050 SCT100 M03/M04 Q1012 RMK 1CU050 3AC100 A2990
RJCB 192300Z VRB01KT 9999 R35/0350VP2000U BCFG FEW050 SCT100 M03/M04 Q1012
RJCB 192240Z 02002KT 9999 R35/P2000N BCFG FEW050 M03/M04 Q1012 RMK 1CU050 A2991 1200S
RJCB 191100Z 34002KT 9999 FEW040 BKN100 M01/M05 Q1015
RJCB 191000Z 00000KT 9999 FEW040 BKN100 M01/M06 Q1015
RJCB 190900Z 35001KT 9999 FEW040 BKN130 M00/M07 Q1016
RJCB 190800Z 23003KT 9999 FEW040 BKN/// 00/M07 Q1016
RJCB 190700Z VRB01KT 9999 FEW040 BKN/// 02/M07 Q1016
RJCB 190600Z VRB02KT 9999 FEW030 BKN/// 02/M08 Q1016
RJCB 190500Z 17003KT 9999 FEW030 BKN/// 02/M07 Q1017
RJCB 190400Z VRB02KT 9999 FEW030 BKN/// 00/M07 Q1018
RJCB 190300Z VRB01KT 9999 FEW030 SCT/// M01/M10 Q1019
RJCB 190200Z 35003KT 310V010 9999 FEW030 BKN/// M02/M10 Q1020
RJCB 190100Z 30004KT 9999 FEW030 BKN/// M05/M11 Q1021
RJCB 190000Z 15002KT 9999 FEW030 BKN/// M10/M14 Q1021
RJCB 182300Z VRB01KT 9999 FEW030 BKN/// M11/M15 Q1022
RJCB 182240Z VRB01KT 9999 FEW030 BKN/// M14/M16 Q1022 RMK 1CU030 A3019
RJCB 181100Z 22002KT 9999 FEW030 M09/M12 Q1020
RJCB 181000Z 19002KT 9999 FEW030 M05/M10 Q1020
RJCB 180900Z VRB02KT 9999 FEW030 M04/M10 Q1019
RJCB 180800Z 36008KT 9999 FEW030 M02/M09 Q1018
RJCB 180700Z 35008KT 9999 FEW030 M01/M08 Q1018